Latest Coastal Weather Observations for Port Kembla Harbour

IDN60701

Issued at 2:31 am EST Wednesday 26 April 2017 (issued every 10 minutes, with the page automatically refreshed every 10 minutes)

About coastal observations | Map of coastal stations | Coastal observations for NSW | Marine services | Other Formats
Station Details ID: 068253 Name: PORT KEMBLA NTC AWS Lat: -34.47 Lon: 150.91 Height: 0.0 m
Data from the previous 72 hours. | See also: Recent months for locations in New South Wales
Date/Time
EST
Temp
°C
Wind Pressure Rain since
9am
mm
Weather Cloud Vis
km
Sea
Height
m
Swell
Dir  Spd
kts
Gust
kts
hPa Trend Height
m
Period
s
Dir
26/02:30am 19.6 W 6 10 1006.3 - - - - - - - - -
26/02:00am 20.2 WNW 4 9 1006.5 - - - - - - - - -
26/01:30am 20.4 WNW 5 9 1006.6 - - - - - - - - -
26/01:00am 20.8 NW 9 16 1006.4 - - - - - - - - -
26/12:30am 20.4 WNW 5 10 1006.6 - - - - - - - - -
26/12:00am 20.7 NW 6 8 1006.7 - - - - - - - - -
 
Date/Time
EST
Temp
°C
Wind Pressure Rain since
9am
mm
Weather Cloud Vis
km
Sea
Height
m
Swell
Dir  Spd
kts
Gust
kts
hPa Trend Height
m
Period
s
Dir
25/11:30pm 20.5 ENE 1 3 1007.0 - - - - - - - - -
25/11:00pm 20.8 NW 1 3 1007.1 - - - - - - - - -
25/10:30pm 21.4 NW 8 14 1007.1 - - - - - - - - -
25/10:00pm 21.1 N 3 9 1007.5 - - - - - - - - -
25/09:30pm 20.8 N 4 6 1007.6 - - - - - - - - -
25/09:00pm 21.1 N 3 5 1007.6 - - - - - - - - -
25/08:30pm 20.6 E 1 3 1007.6 - - - - - - - - -
25/08:00pm 20.7 N 6 9 1007.4 - - - - - - - - -
25/07:30pm 20.7 N 7 11 1007.4 - - - - - - - - -
25/07:00pm 21.2 N 8 10 1007.3 - - - - - - - - -
25/06:30pm 21.2 N 8 11 1007.1 - - - - - - - - -
25/06:00pm 21.0 NNE 8 11 1006.8 - - - - - - - - -
25/05:30pm 21.4 N 6 8 1006.9 - - - - - - - - -
25/05:00pm 21.8 NNE 9 11 1006.9 - - - - - - - - -
25/04:30pm 22.4 N 7 11 1006.9 - - - - - - - - -
25/04:00pm 22.4 N 6 8 1006.6 - - - - - - - - -
25/03:30pm 22.1 N 4 6 1007.0 - - - - - - - - -
25/03:00pm 21.8 N 7 9 1006.9 - - - - - - - - -
25/02:30pm 22.7 NNW 7 11 1007.2 - - - - - - - - -
25/02:00pm 21.6 NE 8 10 1007.4 - - - - - - - - -
25/01:30pm 22.1 NNE 10 13 1007.6 - - - - - - - - -
25/01:00pm 21.7 NE 11 16 1007.8 - - - - - - - - -
25/12:30pm 21.7 NNE 11 16 1008.3 - - - - - - - - -
25/12:00pm 21.5 NE 14 18 1008.9 - - - - - - - - -
25/11:30am 21.5 NE 12 16 1009.7 - - - - - - - - -
25/11:00am 21.6 NE 12 16 1010.3 - - - - - - - - -
25/10:30am 21.7 NNE 10 14 1010.9 - - - - - - - - -
25/10:00am 21.1 N 8 11 1011.4 - - - - - - - - -
25/09:30am 20.7 N 5 9 1011.9 - - - - - - - - -
25/09:00am 20.3 NNW 8 10 1012.3 - - - - - - - - -
25/08:30am 20.3 N 6 9 1012.6 - - - - - - - - -
25/08:00am 19.9 NNW 7 10 1012.9 - - - - - - - - -
25/07:30am 19.9 N 6 9 1012.8 - - - - - - - - -
25/07:00am 19.7 NNW 7 10 1012.7 - - - - - - - - -
25/06:30am 19.8 NNW 8 11 1012.9 - - - - - - - - -
25/06:00am 20.5 N 8 12 1012.8 - - - - - - - - -
25/05:30am 20.1 N 6 11 1013.1 - - - - - - - - -
25/05:00am 20.0 N 5 8 1013.3 - - - - - - - - -
25/04:30am 19.9 N 5 8 1013.3 - - - - - - - - -
25/04:00am 19.9 N 5 8 1013.6 - - - - - - - - -
25/03:30am 19.8 N 4 6 1013.8 - - - - - - - - -
25/03:00am 20.0 N 5 7 1014.2 - - - - - - - - -
25/02:30am 20.2 N 4 7 1014.6 - - - - - - - - -
25/02:00am 20.4 NW 8 12 1015.0 - - - - - - - - -
25/01:30am 20.2 NNE 4 5 1015.6 - - - - - - - - -
25/01:00am 20.5 N 6 12 1015.9 - - - - - - - - -
25/12:30am 20.1 NNW 5 6 1016.1 - - - - - - - - -
25/12:00am 20.3 N 2 4 1016.6 - - - - - - - - -
 
Date/Time
EST
Temp
°C
Wind Pressure Rain since
9am
mm
Weather Cloud Vis
km
Sea
Height
m
Swell
Dir  Spd
kts
Gust
kts
hPa Trend Height
m
Period
s
Dir
24/11:30pm 20.3 N 5 9 1017.0 - - - - - - - - -
24/11:00pm 20.3 N 6 7 1017.4 - - - - - - - - -
24/10:30pm 20.3 N 8 11 1017.6 - - - - - - - - -
24/10:00pm 20.5 N 11 15 1017.8 - - - - - - - - -
24/09:30pm 20.3 N 4 6 1018.0 - - - - - - - - -
24/09:00pm 20.2 N 6 8 1018.2 - - - - - - - - -
24/08:30pm 20.3 NNE 6 9 1018.0 - - - - - - - - -
24/08:00pm 20.3 N 6 8 1018.0 - - - - - - - - -
24/07:30pm 20.4 N 4 7 1018.1 - - - - - - - - -
24/07:00pm 20.5 N 7 9 1018.0 - - - - - - - - -
24/06:30pm 20.8 NNE 9 12 1018.0 - - - - - - - - -
24/06:00pm 20.6 NNE 8 11 1017.6 - - - - - - - - -
24/05:30pm 20.6 NNE 8 10 1017.4 - - - - - - - - -
24/05:00pm 20.8 NNE 9 11 1017.4 - - - - - - - - -
24/04:30pm 20.8 NNE 7 9 1017.2 - - - - - - - - -
24/04:00pm 20.8 NNE 7 8 1017.4 - - - - - - - - -
24/03:30pm 20.8 NNE 6 7 1017.6 - - - - - - - - -
24/03:00pm 20.8 NNE 6 7 1017.7 - - - - - - - - -
24/02:30pm 21.1 NNE 6 8 1017.8 - - - - - - - - -
24/02:00pm 21.1 NNE 6 8 1018.1 - - - - - - - - -
24/01:30pm 21.1 NE 7 9 1018.4 - - - - - - - - -
24/01:00pm 21.0 NE 5 7 1019.0 - - - - - - - - -
24/12:30pm 20.7 ENE 5 7 1019.5 - - - - - - - - -
24/12:00pm 20.5 ENE 5 7 1020.2 - - - - - - - - -
24/11:30am 20.3 E 4 7 1020.6 - - - - - - - - -
24/11:00am 20.1 ENE 4 5 1021.1 - - - - - - - - -
24/10:30am 20.1 ENE 3 4 1021.4 - - - - - - - - -
24/10:00am 20.0 NE 3 4 1021.7 - - - - - - - - -
24/09:30am 19.8 ENE 3 4 1021.8 - - - - - - - - -
24/09:00am 20.9 N 1 3 1021.8 - - - - - - - - -
24/08:30am 19.3 CALM 0 1 1021.8 - - - - - - - - -
24/08:00am 17.9 W 3 4 1021.8 - - - - - - - - -
24/07:30am 17.1 SW 3 4 1021.6 - - - - - - - - -
24/07:00am 16.2 WSW 4 5 1021.5 - - - - - - - - -
24/06:30am 16.3 WSW 3 4 1021.2 - - - - - - - - -
24/06:00am 16.6 SW 4 4 1021.1 - - - - - - - - -
24/05:30am 16.5 WSW 4 5 1021.0 - - - - - - - - -
24/05:00am 16.6 WSW 3 4 1020.9 - - - - - - - - -
24/04:30am 16.6 WSW 4 5 1020.8 - - - - - - - - -
24/04:00am 16.6 WSW 3 3 1020.7 - - - - - - - - -
24/03:30am 16.7 WSW 3 4 1020.7 - - - - - - - - -
24/03:00am 17.0 WSW 3 4 1020.8 - - - - - - - - -
24/02:30am 16.9 WSW 3 5 1021.1 - - - - - - - - -
24/02:00am 17.0 WSW 4 5 1021.6 - - - - - - - - -
24/01:30am 17.2 WSW 4 4 1021.7 - - - - - - - - -
24/01:00am 17.5 WSW 3 4 1021.8 - - - - - - - - -
24/12:30am 17.7 SW 4 5 1021.9 - - - - - - - - -
24/12:00am 17.8 W 3 4 1022.2 - - - - - - - - -
 
Date/Time
EST
Temp
°C
Wind Pressure Rain since
9am
mm
Weather Cloud Vis
km
Sea
Height
m
Swell
Dir  Spd
kts
Gust
kts
hPa Trend Height
m
Period
s
Dir
23/11:30pm 18.3 W 5 6 1022.4 - - - - - - - - -
23/11:00pm 18.3 WSW 4 6 1022.7 - - - - - - - - -
23/10:30pm 18.7 WSW 3 5 1022.7 - - - - - - - - -
23/10:00pm 19.1 WSW 5 6 1022.8 - - - - - - - - -
23/09:30pm 19.0 WSW 4 5 1022.8 - - - - - - - - -
23/09:00pm 18.9 SW 4 6 1022.8 - - - - - - - - -
23/08:30pm 19.1 SW 5 7 1022.6 - - - - - - - - -
23/08:00pm 19.7 SW 3 5 1022.5 - - - - - - - - -
23/07:30pm 20.1 WSW 4 5 1022.3 - - - - - - - - -
23/07:00pm 20.1 WSW 4 5 1022.1 - - - - - - - - -
23/06:30pm 20.4 SW 4 5 1021.9 - - - - - - - - -
23/06:00pm 20.9 SSW 3 5 1021.4 - - - - - - - - -
23/05:30pm 20.9 S 3 5 1021.2 - - - - - - - - -
23/05:00pm 21.2 SSE 4 7 1021.0 - - - - - - - - -
23/04:30pm 21.5 SE 4 7 1020.8 - - - - - - - - -
23/04:00pm 21.5 SE 5 7 1020.7 - - - - - - - - -
23/03:30pm 21.4 SE 5 8 1020.7 - - - - - - - - -
23/03:00pm 21.5 SE 6 9 1020.8 - - - - - - - - -
23/02:30pm 21.8 SE 5 9 1020.8 - - - - - - - - -
23/02:00pm 22.0 SSE 5 9 1020.9 - - - - - - - - -
23/01:30pm 22.1 SE 6 10 1020.9 - - - - - - - - -
23/01:00pm 21.7 SE 5 9 1021.2 - - - - - - - - -

Other Formats:

Comma delimited format used in spreadsheet applications
http://www.bom.gov.au/fwo/IDN60701/IDN60701.95745.axf

JavaScript Object Notation format (JSON) in row-major order
http://www.bom.gov.au/fwo/IDN60701/IDN60701.95745.json